Apex, NC

4:44 PM EDT on July 06, 2015 (GMT -0400)
Scotts Mill | | Change Station
CLOSE
Current Station
Personal Weather Station
Location: Apex, NC
Elevation: 388 ft
Nearby Weather Stations

Elev 388 ft 35.72 °N, 78.88 °W | Updated 4 seconds ago

Partly Cloudy
Partly Cloudy
87.3 °F
Feels Like 96 °F
N
1.6
Wind Variable Wind from North
Gusts 3.1 mph

Today
High -- | Low -- °F
--% Chance of Precip.
Yesterday
High -- | Low -- °F
Precip. -- in
6:05 AM 8:34 PM
Waning Gibbous, 72% visible
Pressure 30.06 in
Visibility 10.0 miles
Clouds Scattered Clouds 4500 ft
Scattered Clouds 25000 ft
Heat Index 96 °F
Dew Point 75 °F
Humidity 66%
Rainfall 0.00 in
Snow Depth Not available.
UV 7 out of 12
Pollen 2.70 out of 12
Air Quality Not available.
Flu Activity Not available.
METAR KRDU 061951Z 24012KT 10SM SCT045TCU SCT250 32/21 A3008 RMK AO2 SLP180 TCU E-S-SW T03170206

More Conditions Fewer Conditions

Pressure 30.06 in
Visibility 10.0 miles
Clouds Scattered Clouds 4500 ft
Scattered Clouds 25000 ft
Heat Index 96 °F
Dew Point 75 °F
Humidity 66%
Rainfall 0.00 in
Snow Depth Not available.
UV 7 out of 12
Pollen 2.70 out of 12
Air Quality Not available.
Flu Activity Not available.
METAR KRDU 061951Z 24012KT 10SM SCT045TCU SCT250 32/21 A3008 RMK AO2 SLP180 TCU E-S-SW T03170206

More Conditions Fewer Conditions

10-Day Weather Forecast

×

Almanac

Astronomy

Jul. 06, 2015 Rise Set
Actual Time
Civil Twilight
Nautical Twilight
Astronomical Twilight
Moon
Length of Visible Light
Length of Day
Tomorrow will be .
, % of the Moon is Illuminated

Today's Extremes

State Highs State Lows

Community

WunderPhotos

Upload Photos

1,835,638 photos uploaded!

WunderBlogs® & News

Nearby

Air Quality

  Air Quality AQ Index Pollutant
Not available.

Snow Depth

Station Depth Elevation

Earthquake Activity

City Distance Mag. Time & Date
Minimum magnitude displayed is 2.5.

Coastal Water Temperatures

Place Temperature

Stations

Nearby Weather Stations

Station Location Temp. Windchill Dew Point Humidity Wind Precip. Elev Updated Type